Stations météo

Publicité
Dourbes, Belgique (6455): Température de l'air & dewpoint: 14.09.2018 01:00:00 - 20.09.2018 01:00:00 (CEST)Dourbes, Belgique (6455): Vitesse du vent & gusts: 14.09.2018 01:00:00 - 20.09.2018 01:00:00 (CEST)Dourbes, Belgique (6455): Direction du vent: 14.09.2018 01:00:00 - 20.09.2018 01:00:00 (CEST)Dourbes, Belgique (6455): reduced air pressure: 14.09.2018 01:00:00 - 20.09.2018 01:00:00 (CEST)Dourbes, Belgique (6455): Ensoleillement: 14.09.2018 01:00:00 - 20.09.2018 01:00:00 (CEST)Dourbes, Belgique (6455): Quantités de précipitations: 14.09.2018 01:00:00 - 20.09.2018 01:00:00 (CEST)
Date & Time tt [°C] td [°C] ff [km/h] ff [knt] fx [km/h] fx [knt] dd ppp [hPa] sd [min] rr [mm]
20.09.2018 01:00:00 - - - - - - - - - -
20.09.2018 00:00:00 15,5 12,2 4 2 6 4 SSE 1019,2 0 0,0
19.09.2018 23:00:00 15,9 12,4 4 2 5 3 S 1019,2 0 0,0
19.09.2018 22:00:00 16,7 12,2 4 2 5 3 SSW 1018,8 0 0,0
19.09.2018 21:00:00 18,4 12,1 4 2 15 8 SSW 1018,4 0 0,0
19.09.2018 20:00:00 20,6 12,5 7 4 26 14 W 1018,0 0 0,0
19.09.2018 19:00:00 22,4 12,7 13 7 29 16 SW 1017,5 36 0,0
19.09.2018 18:00:00 23,9 12,8 18 10 39 21 SSW 1016,8 60 0,0
19.09.2018 17:00:00 24,6 12,6 22 12 37 20 SSW 1016,8 60 0,0
19.09.2018 16:00:00 25,5 13,8 19 10 41 22 SSW 1016,6 60 0,0
19.09.2018 15:00:00 24,9 14,0 19 11 42 23 SSW 1017,0 58 0,0
19.09.2018 14:00:00 25,2 15,0 18 10 44 24 SW 1017,2 43 0,0
19.09.2018 13:00:00 22,8 15,5 17 9 42 23 SSW 1017,4 36 0,0
19.09.2018 12:00:00 23,5 16,3 16 9 34 18 SSW 1017,1 60 0,0
19.09.2018 11:00:00 20,6 15,8 16 9 35 19 S 1017,2 60 0,0
19.09.2018 10:00:00 19,3 16,4 10 5 20 11 SSW 1017,2 49 0,0
19.09.2018 09:00:00 17,3 15,9 9 5 21 12 S 1017,2 44 0,0
19.09.2018 08:00:00 16,2 15,2 7 4 14 8 SW 1017,1 0 0,0
19.09.2018 07:00:00 16,6 15,4 8 4 18 10 S 1016,8 0 0,0
19.09.2018 06:00:00 16,2 15,5 6 3 11 6 SSW 1017,2 0 0,0
19.09.2018 05:00:00 16,5 15,6 8 4 16 9 S 1017,0 0 0,0
19.09.2018 04:00:00 16,0 15,2 4 2 10 5 SSE 1016,9 0 0,0
19.09.2018 03:00:00 14,9 14,5 4 2 7 4 SE 1017,2 0 0,0
19.09.2018 02:00:00 15,3 14,8 7 4 8 4 ENE 1017,0 0 0,0
19.09.2018 01:00:00 16,0 14,8 4 2 5 3 SW 1016,8 0 0,0
19.09.2018 00:00:00 17,2 15,3 4 2 10 6 WSW 1016,7 0 0,0
18.09.2018 23:00:00 18,6 15,6 6 3 13 7 SW 1016,0 0 0,0
18.09.2018 22:00:00 19,5 15,7 5 3 13 7 WSW 1016,0 0 0,0
18.09.2018 21:00:00 20,3 15,7 9 5 19 10 SSW 1015,5 0 0,0
18.09.2018 20:00:00 21,5 15,4 7 4 26 14 SSW 1014,6 0 0,0
18.09.2018 19:00:00 23,5 15,0 14 7 27 14 SSW 1014,0 34 0,0
18.09.2018 18:00:00 25,0 14,0 13 7 38 20 SW 1013,5 60 0,0
18.09.2018 17:00:00 25,7 13,6 18 10 36 19 SW 1013,2 60 0,0
18.09.2018 16:00:00 27,3 13,4 21 11 39 21 SSW 1012,8 60 0,0
18.09.2018 15:00:00 27,5 13,5 20 11 40 22 SSW 1012,6 60 0,0
18.09.2018 14:00:00 26,6 14,3 22 12 38 20 SSW 1012,7 60 0,0
18.09.2018 13:00:00 25,7 13,7 16 9 35 19 SSW 1012,7 60 0,0
18.09.2018 12:00:00 25,6 12,7 18 10 31 17 S 1012,7 59 0,0
18.09.2018 11:00:00 22,8 13,2 12 6 32 18 SW 1012,9 60 0,0
18.09.2018 10:00:00 22,0 13,1 10 5 27 15 SW 1012,5 60 0,0
18.09.2018 09:00:00 20,2 12,2 11 6 34 18 S 1012,2 60 0,0
18.09.2018 08:00:00 19,1 11,2 14 8 24 13 SSE 1011,8 7 0,0
18.09.2018 07:00:00 19,1 10,9 11 6 27 15 S 1011,5 0 0,0
18.09.2018 06:00:00 19,3 10,9 12 7 24 13 SSE 1011,4 0 0,0
18.09.2018 05:00:00 19,4 10,5 10 5 28 15 SSE 1011,8 0 0,0
18.09.2018 04:00:00 19,1 10,9 7 4 17 9 SSE 1012,0 0 0,0
18.09.2018 03:00:00 18,0 11,0 5 3 11 6 SSE 1012,5 0 0,0
18.09.2018 02:00:00 16,4 9,3 7 4 13 7 ESE 1012,9 0 0,0
18.09.2018 01:00:00 17,1 8,6 7 4 10 6 E 1013,4 0 0,0
18.09.2018 00:00:00 14,0 8,3 4 2 6 4 E 1014,2 0 0,0
17.09.2018 23:00:00 14,7 8,2 4 2 8 4 E 1014,5 0 0,0
17.09.2018 22:00:00 16,0 7,5 4 2 6 3 SSE 1014,6 0 0,0
17.09.2018 21:00:00 18,0 7,0 4 2 5 3 SE 1014,7 0 0,0
17.09.2018 20:00:00 20,6 6,4 4 2 12 6 SE 1014,5 0 0,0
17.09.2018 19:00:00 24,1 5,8 8 5 26 14 S 1014,5 37 0,0
17.09.2018 18:00:00 25,3 5,9 9 5 18 10 SSE 1014,7 60 0,0
17.09.2018 17:00:00 25,2 6,2 11 6 20 11 S 1015,4 60 0,0
17.09.2018 16:00:00 25,4 7,6 8 5 18 10 SSW 1016,2 60 0,0
17.09.2018 15:00:00 25,4 5,8 8 5 18 10 SSW 1017,0 60 0,0
17.09.2018 14:00:00 24,2 6,2 11 6 21 11 S 1017,8 60 0,0
17.09.2018 13:00:00 23,6 7,7 11 6 18 10 SSW 1018,3 60 0,0
17.09.2018 12:00:00 21,3 11,2 5 3 8 4 SW 1018,9 60 0,0
17.09.2018 11:00:00 17,2 11,7 4 2 6 3 S 1019,6 60 0,0
17.09.2018 10:00:00 12,6 10,5 4 2 6 3 NNW 1020,3 60 0,0
17.09.2018 09:00:00 8,9 8,3 4 2 8 4 SE 1020,6 60 0,0
17.09.2018 08:00:00 7,1 7,0 4 2 8 4 N 1020,5 9 0,0
17.09.2018 07:00:00 6,5 6,3 4 2 5 3 ENE 1020,6 0 0,0
17.09.2018 06:00:00 7,0 6,6 4 2 4 2 W 1021,1 0 0,0
17.09.2018 05:00:00 7,8 7,3 0 0 5 3 N 1020,4 0 0,0
17.09.2018 04:00:00 8,3 7,6 0 0 6 3 N 1020,8 0 0,0
17.09.2018 03:00:00 8,7 7,9 4 2 3 2 SE 1020,7 0 0,0
17.09.2018 02:00:00 9,5 8,2 0 0 4 2 N 1020,6 0 0,0
17.09.2018 01:00:00 10,8 8,9 4 2 4 2 E 1020,4 0 0,0
17.09.2018 00:00:00 11,9 9,5 4 2 4 2 SSE 1020,8 0 0,0
16.09.2018 23:00:00 13,2 9,8 0 0 3 2 N 1020,7 0 0,0
16.09.2018 22:00:00 15,0 9,5 4 2 4 2 SSW 1020,5 0 0,0
16.09.2018 21:00:00 16,9 9,5 4 2 5 3 SE 1019,8 0 0,0
16.09.2018 20:00:00 19,1 8,7 4 2 7 4 SW 1019,2 0 0,0
16.09.2018 19:00:00 21,7 8,0 5 3 15 8 S 1018,7 17 0,0
16.09.2018 18:00:00 22,5 6,4 9 5 19 11 SSW 1018,6 57 0,0
16.09.2018 17:00:00 23,2 7,2 5 3 15 8 WSW 1018,7 60 0,0
16.09.2018 16:00:00 23,4 7,3 12 6 23 13 SSE 1019,1 60 0,0
16.09.2018 15:00:00 22,6 7,6 8 4 20 11 S 1019,8 60 0,0
16.09.2018 14:00:00 22,3 8,2 11 6 17 9 S 1020,2 60 0,0
16.09.2018 13:00:00 21,4 8,5 8 4 15 8 S 1020,8 60 0,0
16.09.2018 12:00:00 19,2 10,5 4 2 9 5 SE 1021,7 60 0,0
16.09.2018 11:00:00 16,5 12,0 4 2 6 4 NNW 1022,5 60 0,0
16.09.2018 10:00:00 11,5 10,7 4 2 4 2 NNW 1023,3 60 0,0
16.09.2018 09:00:00 7,3 7,3 0 0 4 2 N 1023,5 60 0,0
16.09.2018 08:00:00 5,3 5,3 0 0 4 2 N 1023,6 7 0,0
16.09.2018 07:00:00 5,6 5,6 4 2 5 3 N 1023,6 0 0,0
16.09.2018 06:00:00 6,7 6,7 0 0 6 4 N 1023,5 0 0,0
16.09.2018 05:00:00 7,1 6,9 4 2 7 4 NNE 1023,8 0 0,0
16.09.2018 04:00:00 7,6 7,4 4 2 8 4 E 1024,0 0 0,0
16.09.2018 03:00:00 8,4 8,0 0 0 8 5 N 1024,6 0 0,0
16.09.2018 02:00:00 8,8 8,3 4 2 4 2 ENE 1025,0 0 0,0
16.09.2018 01:00:00 9,4 8,5 4 2 5 3 E 1025,3 0 0,0
16.09.2018 00:00:00 10,3 8,8 0 0 5 3 N 1025,3 0 0,0
15.09.2018 23:00:00 11,2 9,0 4 2 4 2 ESE 1025,4 0 0,0
15.09.2018 22:00:00 12,3 9,4 0 0 3 2 N 1025,3 0 0,0
15.09.2018 21:00:00 14,2 9,5 0 0 4 2 N 1024,8 0 0,0
15.09.2018 20:00:00 16,1 9,7 4 2 14 8 NNW 1024,2 0 0,0
15.09.2018 19:00:00 18,6 9,5 5 3 15 8 W 1023,8 30 0,0
15.09.2018 18:00:00 19,6 8,7 8 4 16 9 SW 1023,8 45 0,0
15.09.2018 17:00:00 18,9 9,2 4 2 15 8 NW 1024,2 2 0,0
15.09.2018 16:00:00 18,9 9,7 6 3 16 9 NW 1024,2 6 0,0
15.09.2018 15:00:00 20,4 10,0 9 5 22 12 WSW 1024,4 21 0,0
15.09.2018 14:00:00 19,1 10,7 7 4 23 13 W 1024,6 27 0,0
15.09.2018 13:00:00 19,9 11,0 10 6 23 12 SW 1024,7 58 0,0
15.09.2018 12:00:00 17,0 11,2 8 4 17 9 W 1025,3 49 0,0
15.09.2018 11:00:00 16,6 12,9 9 5 21 12 W 1024,9 60 0,0
15.09.2018 10:00:00 12,6 11,6 5 3 11 6 SSW 1025,2 50 0,0
15.09.2018 09:00:00 9,8 9,8 0 0 4 2 N 1024,9 60 0,0
15.09.2018 08:00:00 8,4 8,4 4 2 6 3 SSW 1024,5 7 0,0
15.09.2018 07:00:00 8,2 8,1 4 2 5 3 S 1024,0 0 0,0
15.09.2018 06:00:00 8,3 8,0 4 2 4 2 S 1023,7 0 0,0
15.09.2018 05:00:00 8,5 8,2 4 2 6 3 S 1023,5 0 0,0
15.09.2018 04:00:00 8,5 7,9 0 0 5 3 N 1023,4 0 0,0
15.09.2018 03:00:00 9,0 8,0 4 2 5 3 WSW 1023,5 0 0,0
15.09.2018 02:00:00 10,0 8,1 4 2 8 5 W 1023,3 0 0,0
15.09.2018 01:00:00 11,7 8,5 5 3 11 6 W 1022,9 0 0,0
15.09.2018 00:00:00 13,4 8,8 4 2 14 8 W 1022,5 0 0,0
14.09.2018 23:00:00 14,1 9,4 4 2 21 11 WSW 1022,1 0 0,0
14.09.2018 22:00:00 14,8 9,5 7 4 14 8 WNW 1021,7 0 0,0
14.09.2018 21:00:00 15,1 9,0 4 2 9 5 W 1020,9 0 0,0
14.09.2018 20:00:00 15,9 7,8 7 4 17 9 WNW 1020,5 0 0,0
14.09.2018 19:00:00 17,6 6,7 7 4 19 10 W 1020,0 31 0,0
14.09.2018 18:00:00 19,1 7,1 10 5 23 12 WNW 1019,8 52 0,0
14.09.2018 17:00:00 19,4 6,7 10 6 24 13 WNW 1019,9 41 0,0
14.09.2018 16:00:00 21,2 6,4 9 5 18 10 SW 1019,5 51 0,0
14.09.2018 15:00:00 19,6 6,1 7 4 17 9 WSW 1020,0 54 0,0
14.09.2018 14:00:00 19,5 8,0 4 2 16 9 SW 1020,3 43 0,0
14.09.2018 13:00:00 19,2 7,7 9 5 18 10 SSW 1020,8 59 0,0
14.09.2018 12:00:00 17,1 7,4 6 3 11 6 WNW 1021,4 60 0,0
14.09.2018 11:00:00 15,2 11,5 4 2 - - S 1021,6 - -
14.09.2018 10:00:00 11,3 11,2 4 2 5 3 NNE 1021,6 38 0,0
14.09.2018 09:00:00 9,3 9,3 4 2 4 2 S 1021,8 - -
14.09.2018 08:00:00 8,4 8,4 0 0 3 2 N 1021,7 0 0,0
14.09.2018 07:00:00 8,0 7,9 0 0 6 3 N 1021,5 0 0,0
14.09.2018 06:00:00 8,8 8,5 4 2 6 3 E 1021,2 0 0,0
14.09.2018 05:00:00 9,9 9,5 0 0 6 3 N 1021,3 0 0,0
14.09.2018 04:00:00 10,5 10,0 0 0 5 3 N 1021,5 0 0,0
14.09.2018 03:00:00 11,1 10,2 4 2 5 3 SW 1021,5 0 0,0
14.09.2018 02:00:00 12,0 9,5 4 2 12 6 N 1021,5 0 0,0
14.09.2018 01:00:00 13,1 10,0 8 4 16 9 N 1021,4 0 0,0

tt = Température de l'air
td = dewpoint
ff = Vitesse du vent
fx = gusts
dd = Direction du vent
ppp = reduced air pressure
sd = Ensoleillement
rr = Quantités de précipitations

stations d'obs. à proximité